samedi 8 mars 2014

ALERTE SPOTTING 08/03/14

73H CN-RGN RAM (sticker 50th 737)
    AT780/AT783  11h15/12h20
  AT782/AT781 19h30/20h40

744 EC-KQC Pullmantur Air
   dpt PLM6021  12h25

73H TC-AVP Pegasus (sticker Asia)
   PC401/PC402  13h20/14h10

763
   AT770/AT771  17h15/18h30

32A EC-LVP Vueling (couleur Linking Europe)
   VY8020/VY8021  18h50/19h30


Manque les prévisions/immats UX / BE / AZ / TP / BA / AH
*** Heures en Local Time **
Prévisions matinales soumises à modifications de dernières minute. Voir le log du mois pour la version 'définitive' de la journée: http://www.airkalo.com/ORLYAVIATION/Logdumois.html

le TAF de la journée:



METAR: LFPO 080330Z 00000KT CAVOK 03/01 Q1028 TEMPO 4000 BR=
TAF LONG: LFPO 072300Z 0800/0906 07004KT CAVOK TEMPO 0803/0807 4000 BR
TEMPO 0903/0906 4000 BR=